sensor_id;sensor_type;location;lat;lon;timestamp;P1;durP1;ratioP1;P2;durP2;ratioP2
29824;SDS011;16713;52.916;12.834;2023-06-22T08:14:42;4.72;;;3.05;;
29824;SDS011;16713;52.916;12.834;2023-06-22T08:17:10;4.57;;;3.60;;
29824;SDS011;16713;52.916;12.834;2023-06-22T08:19:37;7.53;;;3.47;;
29824;SDS011;16713;52.916;12.834;2023-06-22T08:22:04;4.75;;;3.22;;
29824;SDS011;16713;52.916;12.834;2023-06-22T08:24:31;4.05;;;3.28;;
29824;SDS011;16713;52.916;12.834;2023-06-22T08:26:57;5.32;;;3.05;;
29824;SDS011;16713;52.916;12.834;2023-06-22T08:29:24;4.22;;;2.90;;
29824;SDS011;16713;52.916;12.834;2023-06-22T08:31:51;4.68;;;3.00;;
29824;SDS011;16713;52.916;12.834;2023-06-22T08:34:17;5.65;;;3.35;;
29824;SDS011;16713;52.916;12.834;2023-06-22T08:36:47;7.78;;;2.92;;
29824;SDS011;16713;52.916;12.834;2023-06-22T08:39:18;3.72;;;3.08;;
29824;SDS011;16713;52.916;12.834;2023-06-22T08:41:46;3.88;;;3.17;;
29824;SDS011;16713;52.916;12.834;2023-06-22T08:44:15;5.03;;;3.30;;
29824;SDS011;16713;52.916;12.834;2023-06-22T08:46:44;4.97;;;3.10;;
29824;SDS011;16713;52.916;12.834;2023-06-22T08:49:10;8.63;;;6.80;;
29824;SDS011;16713;52.916;12.834;2023-06-22T08:51:37;4.18;;;3.60;;
29824;SDS011;16713;52.916;12.834;2023-06-22T08:54:04;4.38;;;3.25;;
29824;SDS011;16713;52.916;12.834;2023-06-22T08:56:31;5.38;;;3.03;;
29824;SDS011;16713;52.916;12.834;2023-06-22T08:58:57;4.63;;;2.80;;
29824;SDS011;16713;52.916;12.834;2023-06-22T09:01:24;4.95;;;3.88;;
29824;SDS011;16713;52.916;12.834;2023-06-22T09:03:51;4.20;;;3.22;;
29824;SDS011;16713;52.916;12.834;2023-06-22T09:06:22;6.60;;;3.20;;
29824;SDS011;16713;52.916;12.834;2023-06-22T09:08:48;4.10;;;3.38;;
29824;SDS011;16713;52.916;12.834;2023-06-22T09:11:15;9.57;;;4.30;;
29824;SDS011;16713;52.916;12.834;2023-06-22T09:13:42;3.75;;;2.90;;
29824;SDS011;16713;52.916;12.834;2023-06-22T09:16:08;4.78;;;3.47;;
29824;SDS011;16713;52.916;12.834;2023-06-22T09:18:35;5.07;;;3.05;;
29824;SDS011;16713;52.916;12.834;2023-06-22T09:21:17;5.97;;;3.25;;
29824;SDS011;16713;52.916;12.834;2023-06-22T09:23:44;3.42;;;2.90;;
29824;SDS011;16713;52.916;12.834;2023-06-22T09:26:12;3.70;;;3.28;;
29824;SDS011;16713;52.916;12.834;2023-06-22T09:28:39;3.30;;;3.00;;
29824;SDS011;16713;52.916;12.834;2023-06-22T09:31:06;9.77;;;5.78;;
29824;SDS011;16713;52.916;12.834;2023-06-22T09:33:33;3.35;;;3.00;;
29824;SDS011;16713;52.916;12.834;2023-06-22T09:35:59;3.42;;;3.10;;
29824;SDS011;16713;52.916;12.834;2023-06-22T09:38:26;10.07;;;3.78;;
29824;SDS011;16713;52.916;12.834;2023-06-22T09:40:52;5.53;;;3.30;;
29824;SDS011;16713;52.916;12.834;2023-06-22T09:43:19;6.70;;;3.83;;
29824;SDS011;16713;52.916;12.834;2023-06-22T09:45:45;5.50;;;3.75;;
29824;SDS011;16713;52.916;12.834;2023-06-22T09:48:12;5.43;;;3.35;;
29824;SDS011;16713;52.916;12.834;2023-06-22T09:50:38;3.30;;;3.00;;
29824;SDS011;16713;52.916;12.834;2023-06-22T09:53:05;4.70;;;3.05;;
29824;SDS011;16713;52.916;12.834;2023-06-22T09:55:32;4.43;;;3.28;;
29824;SDS011;16713;52.916;12.834;2023-06-22T09:57:58;3.72;;;3.15;;
29824;SDS011;16713;52.916;12.834;2023-06-22T10:00:25;4.20;;;3.20;;
29824;SDS011;16713;52.916;12.834;2023-06-22T10:02:53;5.68;;;3.85;;
29824;SDS011;16713;52.916;12.834;2023-06-22T10:05:22;4.18;;;3.78;;
29824;SDS011;16713;52.916;12.834;2023-06-22T10:07:49;3.83;;;3.35;;
29824;SDS011;16713;52.916;12.834;2023-06-22T10:10:16;4.75;;;3.78;;
29824;SDS011;16713;52.916;12.834;2023-06-22T10:12:47;7.40;;;3.25;;
29824;SDS011;16713;52.916;12.834;2023-06-22T10:15:14;4.55;;;3.25;;
29824;SDS011;16713;52.916;12.834;2023-06-22T10:17:42;4.05;;;3.20;;
29824;SDS011;16713;52.916;12.834;2023-06-22T10:20:08;5.85;;;3.47;;
29824;SDS011;16713;52.916;12.834;2023-06-22T10:22:38;3.80;;;3.40;;
29824;SDS011;16713;52.916;12.834;2023-06-22T10:25:06;5.63;;;4.05;;
29824;SDS011;16713;52.916;12.834;2023-06-22T10:27:33;4.00;;;3.30;;
29824;SDS011;16713;52.916;12.834;2023-06-22T10:30:00;6.25;;;3.33;;
29824;SDS011;16713;52.916;12.834;2023-06-22T10:32:27;4.78;;;3.38;;
29824;SDS011;16713;52.916;12.834;2023-06-22T10:34:54;4.30;;;3.85;;
29824;SDS011;16713;52.916;12.834;2023-06-22T10:37:24;4.28;;;3.40;;
29824;SDS011;16713;52.916;12.834;2023-06-22T10:39:51;5.57;;;3.45;;
29824;SDS011;16713;52.916;12.834;2023-06-22T10:42:17;6.55;;;3.38;;
29824;SDS011;16713;52.916;12.834;2023-06-22T10:44:44;6.65;;;3.90;;
29824;SDS011;16713;52.916;12.834;2023-06-22T10:47:10;5.45;;;4.22;;
29824;SDS011;16713;52.916;12.834;2023-06-22T10:49:38;6.00;;;4.22;;
29824;SDS011;16713;52.916;12.834;2023-06-22T10:52:06;5.80;;;4.45;;
29824;SDS011;16713;52.916;12.834;2023-06-22T10:54:34;7.03;;;4.10;;
29824;SDS011;16713;52.916;12.834;2023-06-22T10:57:01;6.35;;;4.30;;
29824;SDS011;16713;52.916;12.834;2023-06-22T10:59:28;5.65;;;4.22;;
29824;SDS011;16713;52.916;12.834;2023-06-22T11:01:55;4.93;;;3.78;;
29824;SDS011;16713;52.916;12.834;2023-06-22T11:04:23;6.68;;;4.43;;
29824;SDS011;16713;52.916;12.834;2023-06-22T11:09:29;5.93;;;3.80;;
29824;SDS011;16713;52.916;12.834;2023-06-22T11:14:39;5.18;;;4.07;;
29824;SDS011;16713;52.916;12.834;2023-06-22T11:17:05;4.70;;;4.28;;
29824;SDS011;16713;52.916;12.834;2023-06-22T11:19:32;4.60;;;4.20;;
29824;SDS011;16713;52.916;12.834;2023-06-22T11:21:58;6.40;;;4.68;;
29824;SDS011;16713;52.916;12.834;2023-06-22T11:24:25;5.68;;;4.70;;
29824;SDS011;16713;52.916;12.834;2023-06-22T11:26:51;5.07;;;4.45;;
29824;SDS011;16713;52.916;12.834;2023-06-22T11:29:18;5.20;;;4.70;;
29824;SDS011;16713;52.916;12.834;2023-06-22T11:32:02;4.57;;;4.18;;
29824;SDS011;16713;52.916;12.834;2023-06-22T11:34:29;4.78;;;4.28;;
29824;SDS011;16713;52.916;12.834;2023-06-22T11:36:56;5.68;;;4.90;;
29824;SDS011;16713;52.916;12.834;2023-06-22T11:39:23;6.13;;;4.93;;
29824;SDS011;16713;52.916;12.834;2023-06-22T11:42:06;4.63;;;4.22;;
29824;SDS011;16713;52.916;12.834;2023-06-22T11:44:33;7.45;;;5.03;;
29824;SDS011;16713;52.916;12.834;2023-06-22T11:47:00;5.80;;;5.10;;
29824;SDS011;16713;52.916;12.834;2023-06-22T11:49:27;15.90;;;6.90;;
29824;SDS011;16713;52.916;12.834;2023-06-22T11:51:53;5.57;;;4.85;;
29824;SDS011;16713;52.916;12.834;2023-06-22T11:54:20;5.60;;;4.95;;
29824;SDS011;16713;52.916;12.834;2023-06-22T11:56:47;5.80;;;4.85;;
29824;SDS011;16713;52.916;12.834;2023-06-22T11:59:13;6.95;;;4.63;;
29824;SDS011;16713;52.916;12.834;2023-06-22T12:01:40;7.43;;;4.78;;
29824;SDS011;16713;52.916;12.834;2023-06-22T12:04:06;5.22;;;4.68;;
29824;SDS011;16713;52.916;12.834;2023-06-22T12:06:33;6.63;;;4.57;;
29824;SDS011;16713;52.916;12.834;2023-06-22T12:09:04;6.43;;;5.37;;
29824;SDS011;16713;52.916;12.834;2023-06-22T12:11:31;6.07;;;5.00;;
29824;SDS011;16713;52.916;12.834;2023-06-22T12:13:57;6.22;;;4.47;;
29824;SDS011;16713;52.916;12.834;2023-06-22T12:16:28;6.32;;;4.30;;
29824;SDS011;16713;52.916;12.834;2023-06-22T12:18:55;8.25;;;5.28;;
29824;SDS011;16713;52.916;12.834;2023-06-22T12:21:21;5.40;;;4.78;;
29824;SDS011;16713;52.916;12.834;2023-06-22T12:23:48;12.50;;;11.20;;
29824;SDS011;16713;52.916;12.834;2023-06-22T12:26:14;6.03;;;5.43;;
29824;SDS011;16713;52.916;12.834;2023-06-22T12:28:41;6.95;;;5.03;;
29824;SDS011;16713;52.916;12.834;2023-06-22T12:31:07;5.80;;;5.20;;
29824;SDS011;16713;52.916;12.834;2023-06-22T12:33:34;5.45;;;4.78;;
29824;SDS011;16713;52.916;12.834;2023-06-22T12:36:00;5.53;;;4.57;;
29824;SDS011;16713;52.916;12.834;2023-06-22T12:38:27;5.10;;;4.40;;
29824;SDS011;16713;52.916;12.834;2023-06-22T12:40:54;4.93;;;4.53;;
29824;SDS011;16713;52.916;12.834;2023-06-22T12:43:20;6.82;;;5.43;;
29824;SDS011;16713;52.916;12.834;2023-06-22T12:45:47;6.38;;;5.45;;
29824;SDS011;16713;52.916;12.834;2023-06-22T12:48:13;6.55;;;5.75;;
29824;SDS011;16713;52.916;12.834;2023-06-22T12:50:40;7.65;;;5.72;;
29824;SDS011;16713;52.916;12.834;2023-06-22T12:53:06;6.28;;;5.30;;
29824;SDS011;16713;52.916;12.834;2023-06-22T12:55:33;5.78;;;5.22;;
29824;SDS011;16713;52.916;12.834;2023-06-22T12:57:59;6.68;;;5.00;;
29824;SDS011;16713;52.916;12.834;2023-06-22T13:00:26;5.53;;;5.03;;
29824;SDS011;16713;52.916;12.834;2023-06-22T13:02:53;5.80;;;5.00;;
29824;SDS011;16713;52.916;12.834;2023-06-22T13:05:22;7.18;;;5.05;;
29824;SDS011;16713;52.916;12.834;2023-06-22T13:07:48;7.28;;;4.85;;
29824;SDS011;16713;52.916;12.834;2023-06-22T13:10:15;8.13;;;5.47;;
29824;SDS011;16713;52.916;12.834;2023-06-22T13:12:41;6.07;;;5.15;;
29824;SDS011;16713;52.916;12.834;2023-06-22T13:15:08;6.38;;;4.80;;
29824;SDS011;16713;52.916;12.834;2023-06-22T13:17:34;5.43;;;4.85;;
29824;SDS011;16713;52.916;12.834;2023-06-22T13:20:01;6.22;;;5.63;;
29824;SDS011;16713;52.916;12.834;2023-06-22T13:22:34;6.07;;;5.30;;
29824;SDS011;16713;52.916;12.834;2023-06-22T13:25:09;6.78;;;6.07;;
29824;SDS011;16713;52.916;12.834;2023-06-22T13:27:39;5.47;;;4.88;;
29824;SDS011;16713;52.916;12.834;2023-06-22T13:30:07;5.68;;;5.07;;
29824;SDS011;16713;52.916;12.834;2023-06-22T13:32:39;6.13;;;5.32;;
29824;SDS011;16713;52.916;12.834;2023-06-22T13:35:08;6.07;;;5.35;;
29824;SDS011;16713;52.916;12.834;2023-06-22T13:37:36;6.78;;;6.03;;
29824;SDS011;16713;52.916;12.834;2023-06-22T13:40:03;10.23;;;8.10;;
29824;SDS011;16713;52.916;12.834;2023-06-22T13:42:32;7.32;;;6.00;;
29824;SDS011;16713;52.916;12.834;2023-06-22T13:44:59;7.22;;;5.20;;
29824;SDS011;16713;52.916;12.834;2023-06-22T13:47:26;6.50;;;4.97;;
29824;SDS011;16713;52.916;12.834;2023-06-22T13:49:55;5.65;;;5.07;;
29824;SDS011;16713;52.916;12.834;2023-06-22T13:52:24;6.80;;;5.38;;
29824;SDS011;16713;52.916;12.834;2023-06-22T13:54:51;6.40;;;5.60;;
29824;SDS011;16713;52.916;12.834;2023-06-22T13:57:17;6.50;;;5.90;;
29824;SDS011;16713;52.916;12.834;2023-06-22T13:59:44;6.15;;;5.25;;
29824;SDS011;16713;52.916;12.834;2023-06-22T14:02:10;6.82;;;4.78;;
29824;SDS011;16713;52.916;12.834;2023-06-22T14:04:37;7.93;;;4.90;;
29824;SDS011;16713;52.916;12.834;2023-06-22T14:07:04;6.50;;;5.28;;
29824;SDS011;16713;52.916;12.834;2023-06-22T14:09:31;9.05;;;5.22;;
29824;SDS011;16713;52.916;12.834;2023-06-22T14:11:58;9.90;;;5.30;;
29824;SDS011;16713;52.916;12.834;2023-06-22T14:14:29;8.15;;;5.18;;
29824;SDS011;16713;52.916;12.834;2023-06-22T14:16:56;7.60;;;5.63;;
29824;SDS011;16713;52.916;12.834;2023-06-22T14:19:22;9.98;;;4.85;;
29824;SDS011;16713;52.916;12.834;2023-06-22T14:21:49;12.55;;;5.13;;
29824;SDS011;16713;52.916;12.834;2023-06-22T14:24:15;5.47;;;4.95;;
29824;SDS011;16713;52.916;12.834;2023-06-22T14:26:42;6.70;;;5.10;;
29824;SDS011;16713;52.916;12.834;2023-06-22T14:29:08;5.35;;;4.85;;
29824;SDS011;16713;52.916;12.834;2023-06-22T14:31:35;6.00;;;5.13;;
29824;SDS011;16713;52.916;12.834;2023-06-22T14:34:01;6.82;;;5.05;;
29824;SDS011;16713;52.916;12.834;2023-06-22T14:36:29;5.40;;;4.90;;
29824;SDS011;16713;52.916;12.834;2023-06-22T14:38:56;5.60;;;5.10;;
29824;SDS011;16713;52.916;12.834;2023-06-22T14:41:22;5.88;;;5.28;;
29824;SDS011;16713;52.916;12.834;2023-06-22T14:43:49;6.22;;;4.72;;
29824;SDS011;16713;52.916;12.834;2023-06-22T14:46:19;5.40;;;4.88;;
29824;SDS011;16713;52.916;12.834;2023-06-22T14:48:46;7.40;;;5.43;;
29824;SDS011;16713;52.916;12.834;2023-06-22T14:51:14;5.53;;;4.90;;
29824;SDS011;16713;52.916;12.834;2023-06-22T14:53:45;5.82;;;4.95;;
29824;SDS011;16713;52.916;12.834;2023-06-22T14:56:13;5.28;;;4.78;;
29824;SDS011;16713;52.916;12.834;2023-06-22T14:58:41;6.65;;;5.28;;
29824;SDS011;16713;52.916;12.834;2023-06-22T15:01:12;5.80;;;5.10;;
29824;SDS011;16713;52.916;12.834;2023-06-22T15:03:39;7.18;;;5.10;;
29824;SDS011;16713;52.916;12.834;2023-06-22T15:06:07;5.97;;;5.07;;
29824;SDS011;16713;52.916;12.834;2023-06-22T15:08:36;5.18;;;4.68;;
29824;SDS011;16713;52.916;12.834;2023-06-22T15:11:03;5.43;;;4.88;;
29824;SDS011;16713;52.916;12.834;2023-06-22T15:13:31;5.80;;;5.07;;
29824;SDS011;16713;52.916;12.834;2023-06-22T15:16:01;7.78;;;5.95;;
29824;SDS011;16713;52.916;12.834;2023-06-22T15:18:30;7.03;;;6.35;;
29824;SDS011;16713;52.916;12.834;2023-06-22T15:20:56;6.15;;;5.55;;
29824;SDS011;16713;52.916;12.834;2023-06-22T15:23:24;6.57;;;5.60;;
29824;SDS011;16713;52.916;12.834;2023-06-22T15:25:52;6.70;;;4.95;;
29824;SDS011;16713;52.916;12.834;2023-06-22T15:28:18;5.55;;;5.03;;
29824;SDS011;16713;52.916;12.834;2023-06-22T15:30:45;5.85;;;5.22;;
29824;SDS011;16713;52.916;12.834;2023-06-22T15:33:14;6.30;;;4.90;;
29824;SDS011;16713;52.916;12.834;2023-06-22T15:35:41;6.75;;;5.03;;
29824;SDS011;16713;52.916;12.834;2023-06-22T15:38:08;7.18;;;4.82;;
29824;SDS011;16713;52.916;12.834;2023-06-22T15:40:34;5.20;;;4.70;;
29824;SDS011;16713;52.916;12.834;2023-06-22T15:43:01;8.48;;;5.40;;
29824;SDS011;16713;52.916;12.834;2023-06-22T15:45:28;6.55;;;5.35;;
29824;SDS011;16713;52.916;12.834;2023-06-22T15:47:54;6.00;;;5.40;;
29824;SDS011;16713;52.916;12.834;2023-06-22T15:50:21;9.20;;;5.20;;
29824;SDS011;16713;52.916;12.834;2023-06-22T15:52:48;11.77;;;6.38;;
29824;SDS011;16713;52.916;12.834;2023-06-22T15:55:17;6.13;;;5.13;;
29824;SDS011;16713;52.916;12.834;2023-06-22T15:57:45;5.75;;;4.70;;
29824;SDS011;16713;52.916;12.834;2023-06-22T16:00:14;5.85;;;5.03;;
29824;SDS011;16713;52.916;12.834;2023-06-22T16:02:45;6.13;;;5.13;;
29824;SDS011;16713;52.916;12.834;2023-06-22T16:05:13;5.15;;;4.65;;
29824;SDS011;16713;52.916;12.834;2023-06-22T16:07:40;6.85;;;5.45;;
29824;SDS011;16713;52.916;12.834;2023-06-22T16:10:07;10.48;;;5.47;;
29824;SDS011;16713;52.916;12.834;2023-06-22T16:12:34;5.63;;;5.13;;
29824;SDS011;16713;52.916;12.834;2023-06-22T16:15:02;6.72;;;5.55;;
29824;SDS011;16713;52.916;12.834;2023-06-22T16:17:29;7.80;;;7.00;;
29824;SDS011;16713;52.916;12.834;2023-06-22T16:19:56;6.80;;;6.10;;
29824;SDS011;16713;52.916;12.834;2023-06-22T16:22:24;6.38;;;5.30;;
29824;SDS011;16713;52.916;12.834;2023-06-22T16:24:51;6.07;;;5.47;;
29824;SDS011;16713;52.916;12.834;2023-06-22T16:27:18;5.97;;;5.00;;
29824;SDS011;16713;52.916;12.834;2023-06-22T16:29:45;7.07;;;5.28;;
29824;SDS011;16713;52.916;12.834;2023-06-22T16:32:11;8.18;;;6.20;;
29824;SDS011;16713;52.916;12.834;2023-06-22T16:34:38;5.72;;;5.20;;
29824;SDS011;16713;52.916;12.834;2023-06-22T16:37:05;6.32;;;5.35;;
29824;SDS011;16713;52.916;12.834;2023-06-22T16:39:31;5.85;;;5.03;;
29824;SDS011;16713;52.916;12.834;2023-06-22T16:41:58;5.78;;;4.57;;
29824;SDS011;16713;52.916;12.834;2023-06-22T16:44:24;8.98;;;5.25;;
29824;SDS011;16713;52.916;12.834;2023-06-22T16:46:51;9.23;;;5.75;;
29824;SDS011;16713;52.916;12.834;2023-06-22T16:49:17;6.53;;;5.20;;
29824;SDS011;16713;52.916;12.834;2023-06-22T16:51:44;6.07;;;5.47;;
29824;SDS011;16713;52.916;12.834;2023-06-22T16:54:11;6.35;;;5.53;;
29824;SDS011;16713;52.916;12.834;2023-06-22T16:56:38;7.68;;;5.28;;
29824;SDS011;16713;52.916;12.834;2023-06-22T16:59:05;7.45;;;4.88;;
29824;SDS011;16713;52.916;12.834;2023-06-22T17:01:33;6.50;;;5.15;;
29824;SDS011;16713;52.916;12.834;2023-06-22T17:06:33;11.77;;;7.25;;
29824;SDS011;16713;52.916;12.834;2023-06-22T17:09:00;60.47;;;43.20;;
29824;SDS011;16713;52.916;12.834;2023-06-22T17:11:28;195.20;;;140.82;;
29824;SDS011;16713;52.916;12.834;2023-06-22T17:13:58;524.88;;;418.70;;
29824;SDS011;16713;52.916;12.834;2023-06-22T17:16:25;296.55;;;263.80;;
29824;SDS011;16713;52.916;12.834;2023-06-22T17:18:54;61.00;;;52.25;;
29824;SDS011;16713;52.916;12.834;2023-06-22T17:21:27;106.72;;;81.47;;
29824;SDS011;16713;52.916;12.834;2023-06-22T17:23:56;64.20;;;47.42;;
29824;SDS011;16713;52.916;12.834;2023-06-22T17:26:25;26.85;;;19.02;;
29824;SDS011;16713;52.916;12.834;2023-06-22T17:28:53;39.83;;;30.15;;
29824;SDS011;16713;52.916;12.834;2023-06-22T17:31:37;20.65;;;14.55;;
29824;SDS011;16713;52.916;12.834;2023-06-22T17:34:06;15.60;;;11.95;;
29824;SDS011;16713;52.916;12.834;2023-06-22T17:36:39;27.00;;;20.17;;
29824;SDS011;16713;52.916;12.834;2023-06-22T17:39:09;20.80;;;14.65;;
29824;SDS011;16713;52.916;12.834;2023-06-22T17:41:40;11.55;;;9.90;;
29824;SDS011;16713;52.916;12.834;2023-06-22T17:44:09;10.65;;;8.00;;
29824;SDS011;16713;52.916;12.834;2023-06-22T17:46:36;16.75;;;12.27;;
29824;SDS011;16713;52.916;12.834;2023-06-22T17:49:07;11.65;;;8.57;;
29824;SDS011;16713;52.916;12.834;2023-06-22T17:51:35;10.13;;;8.70;;
29824;SDS011;16713;52.916;12.834;2023-06-22T17:54:05;10.13;;;7.35;;
29824;SDS011;16713;52.916;12.834;2023-06-22T17:56:31;8.30;;;7.18;;
29824;SDS011;16713;52.916;12.834;2023-06-22T17:58:58;9.68;;;7.75;;
29824;SDS011;16713;52.916;12.834;2023-06-22T18:01:32;11.73;;;9.20;;
29824;SDS011;16713;52.916;12.834;2023-06-22T18:04:08;10.38;;;7.60;;
29824;SDS011;16713;52.916;12.834;2023-06-22T18:06:38;13.68;;;9.38;;
29824;SDS011;16713;52.916;12.834;2023-06-22T18:09:09;8.15;;;6.88;;
29824;SDS011;16713;52.916;12.834;2023-06-22T18:14:13;7.60;;;6.78;;
29824;SDS011;16713;52.916;12.834;2023-06-22T18:16:42;10.40;;;6.47;;
29824;SDS011;16713;52.916;12.834;2023-06-22T18:19:10;7.70;;;6.90;;
29824;SDS011;16713;52.916;12.834;2023-06-22T18:21:39;7.20;;;6.18;;
29824;SDS011;16713;52.916;12.834;2023-06-22T18:24:06;9.43;;;6.30;;
29824;SDS011;16713;52.916;12.834;2023-06-22T18:26:32;6.35;;;5.75;;
29824;SDS011;16713;52.916;12.834;2023-06-22T18:28:59;6.90;;;6.20;;
29824;SDS011;16713;52.916;12.834;2023-06-22T18:31:26;6.40;;;5.82;;
29824;SDS011;16713;52.916;12.834;2023-06-22T18:33:53;6.00;;;5.40;;
29824;SDS011;16713;52.916;12.834;2023-06-22T18:39:03;7.60;;;5.95;;
29824;SDS011;16713;52.916;12.834;2023-06-22T18:44:02;6.93;;;5.63;;
29824;SDS011;16713;52.916;12.834;2023-06-22T18:46:33;8.35;;;5.97;;
29824;SDS011;16713;52.916;12.834;2023-06-22T18:49:11;7.25;;;5.85;;
29824;SDS011;16713;52.916;12.834;2023-06-22T18:51:49;8.40;;;6.90;;
29824;SDS011;16713;52.916;12.834;2023-06-22T18:54:23;9.18;;;7.93;;
29824;SDS011;16713;52.916;12.834;2023-06-22T18:56:57;8.85;;;5.45;;
29824;SDS011;16713;52.916;12.834;2023-06-22T19:02:12;5.47;;;4.68;;
29824;SDS011;16713;52.916;12.834;2023-06-22T19:05:07;5.50;;;4.97;;
29824;SDS011;16713;52.916;12.834;2023-06-22T19:15:39;6.55;;;5.30;;
29824;SDS011;16713;52.916;12.834;2023-06-22T19:18:21;8.43;;;5.20;;
29824;SDS011;16713;52.916;12.834;2023-06-22T19:20:53;9.35;;;5.72;;
29824;SDS011;16713;52.916;12.834;2023-06-22T19:26:02;7.63;;;6.50;;
29824;SDS011;16713;52.916;12.834;2023-06-22T19:28:32;8.05;;;5.80;;
29824;SDS011;16713;52.916;12.834;2023-06-22T19:30:59;9.68;;;5.35;;
29824;SDS011;16713;52.916;12.834;2023-06-22T19:33:27;7.00;;;5.25;;
29824;SDS011;16713;52.916;12.834;2023-06-22T19:35:55;5.50;;;4.95;;
29824;SDS011;16713;52.916;12.834;2023-06-22T19:38:23;10.40;;;5.88;;
29824;SDS011;16713;52.916;12.834;2023-06-22T19:40:52;12.63;;;8.05;;
29824;SDS011;16713;52.916;12.834;2023-06-22T19:43:20;7.00;;;5.53;;
29824;SDS011;16713;52.916;12.834;2023-06-22T19:45:48;13.20;;;5.65;;
29824;SDS011;16713;52.916;12.834;2023-06-22T19:48:15;10.35;;;6.35;;
29824;SDS011;16713;52.916;12.834;2023-06-22T19:50:42;8.82;;;6.38;;
29824;SDS011;16713;52.916;12.834;2023-06-22T19:53:10;8.63;;;5.57;;
29824;SDS011;16713;52.916;12.834;2023-06-22T19:55:40;8.43;;;6.40;;
29824;SDS011;16713;52.916;12.834;2023-06-22T19:58:12;7.60;;;6.28;;
29824;SDS011;16713;52.916;12.834;2023-06-22T20:00:39;10.65;;;6.13;;
29824;SDS011;16713;52.916;12.834;2023-06-22T20:03:10;7.10;;;6.40;;
29824;SDS011;16713;52.916;12.834;2023-06-22T20:05:43;10.65;;;6.30;;
29824;SDS011;16713;52.916;12.834;2023-06-22T20:08:14;7.15;;;5.90;;
29824;SDS011;16713;52.916;12.834;2023-06-22T20:10:42;10.18;;;7.05;;
29824;SDS011;16713;52.916;12.834;2023-06-22T20:13:19;6.53;;;5.68;;
29824;SDS011;16713;52.916;12.834;2023-06-22T20:15:48;7.95;;;6.40;;
29824;SDS011;16713;52.916;12.834;2023-06-22T20:18:15;9.57;;;6.55;;
29824;SDS011;16713;52.916;12.834;2023-06-22T20:20:46;8.27;;;6.57;;
29824;SDS011;16713;52.916;12.834;2023-06-22T20:23:20;8.23;;;6.57;;
29824;SDS011;16713;52.916;12.834;2023-06-22T20:25:49;8.35;;;6.25;;
29824;SDS011;16713;52.916;12.834;2023-06-22T20:28:18;9.73;;;6.80;;
29824;SDS011;16713;52.916;12.834;2023-06-22T20:31:03;16.98;;;7.75;;
29824;SDS011;16713;52.916;12.834;2023-06-22T20:33:36;8.48;;;7.13;;
29824;SDS011;16713;52.916;12.834;2023-06-22T20:36:05;8.77;;;7.22;;
29824;SDS011;16713;52.916;12.834;2023-06-22T20:38:35;10.00;;;7.03;;
29824;SDS011;16713;52.916;12.834;2023-06-22T20:41:03;15.88;;;7.13;;
29824;SDS011;16713;52.916;12.834;2023-06-22T20:43:33;15.85;;;7.30;;
29824;SDS011;16713;52.916;12.834;2023-06-22T20:45:59;10.43;;;7.22;;
29824;SDS011;16713;52.916;12.834;2023-06-22T20:48:26;9.82;;;7.25;;
29824;SDS011;16713;52.916;12.834;2023-06-22T20:51:05;11.38;;;7.82;;
29824;SDS011;16713;52.916;12.834;2023-06-22T20:53:31;13.07;;;8.07;;
29824;SDS011;16713;52.916;12.834;2023-06-22T20:55:58;14.00;;;9.80;;
29824;SDS011;16713;52.916;12.834;2023-06-22T20:58:25;11.98;;;8.57;;
29824;SDS011;16713;52.916;12.834;2023-06-22T21:00:51;15.52;;;8.43;;
29824;SDS011;16713;52.916;12.834;2023-06-22T21:03:18;15.20;;;9.80;;
29824;SDS011;16713;52.916;12.834;2023-06-22T21:05:44;12.50;;;8.45;;
29824;SDS011;16713;52.916;12.834;2023-06-22T21:08:12;15.02;;;8.48;;
29824;SDS011;16713;52.916;12.834;2023-06-22T21:10:39;12.10;;;9.23;;
29824;SDS011;16713;52.916;12.834;2023-06-22T21:13:05;13.40;;;9.05;;
29824;SDS011;16713;52.916;12.834;2023-06-22T21:15:32;16.38;;;8.88;;
29824;SDS011;16713;52.916;12.834;2023-06-22T21:17:59;14.82;;;9.23;;
29824;SDS011;16713;52.916;12.834;2023-06-22T21:20:26;16.10;;;9.23;;
29824;SDS011;16713;52.916;12.834;2023-06-22T21:22:52;14.55;;;10.05;;
29824;SDS011;16713;52.916;12.834;2023-06-22T21:25:19;13.90;;;8.93;;
29824;SDS011;16713;52.916;12.834;2023-06-22T21:27:45;14.82;;;10.05;;
29824;SDS011;16713;52.916;12.834;2023-06-22T21:30:12;12.10;;;9.25;;
29824;SDS011;16713;52.916;12.834;2023-06-22T21:32:41;17.65;;;10.02;;
29824;SDS011;16713;52.916;12.834;2023-06-22T21:35:08;15.20;;;9.02;;
29824;SDS011;16713;52.916;12.834;2023-06-22T21:37:38;14.95;;;10.35;;
29824;SDS011;16713;52.916;12.834;2023-06-22T21:40:05;15.40;;;9.85;;
29824;SDS011;16713;52.916;12.834;2023-06-22T21:42:33;18.88;;;11.43;;
29824;SDS011;16713;52.916;12.834;2023-06-22T21:44:59;14.88;;;9.45;;
29824;SDS011;16713;52.916;12.834;2023-06-22T21:47:26;14.82;;;9.95;;
29824;SDS011;16713;52.916;12.834;2023-06-22T21:49:52;21.15;;;10.65;;
29824;SDS011;16713;52.916;12.834;2023-06-22T21:52:19;14.57;;;9.85;;
29824;SDS011;16713;52.916;12.834;2023-06-22T21:54:46;14.65;;;11.02;;
29824;SDS011;16713;52.916;12.834;2023-06-22T21:57:13;19.30;;;10.70;;
29824;SDS011;16713;52.916;12.834;2023-06-22T21:59:39;13.77;;;11.00;;
29824;SDS011;16713;52.916;12.834;2023-06-22T22:02:06;14.05;;;10.55;;
29824;SDS011;16713;52.916;12.834;2023-06-22T22:04:33;13.95;;;10.68;;
29824;SDS011;16713;52.916;12.834;2023-06-22T22:06:59;13.05;;;11.00;;
29824;SDS011;16713;52.916;12.834;2023-06-22T22:09:26;13.65;;;10.35;;
29824;SDS011;16713;52.916;12.834;2023-06-22T22:11:52;18.20;;;12.00;;
29824;SDS011;16713;52.916;12.834;2023-06-22T22:14:19;15.95;;;12.18;;
29824;SDS011;16713;52.916;12.834;2023-06-22T22:16:45;18.63;;;12.18;;
29824;SDS011;16713;52.916;12.834;2023-06-22T22:19:12;13.95;;;10.20;;
29824;SDS011;16713;52.916;12.834;2023-06-22T22:21:41;14.18;;;10.25;;
29824;SDS011;16713;52.916;12.834;2023-06-22T22:24:08;12.15;;;8.77;;
29824;SDS011;16713;52.916;12.834;2023-06-22T22:26:35;14.40;;;10.10;;
29824;SDS011;16713;52.916;12.834;2023-06-22T22:29:02;11.10;;;8.88;;
29824;SDS011;16713;52.916;12.834;2023-06-22T22:31:32;10.38;;;7.85;;
29824;SDS011;16713;52.916;12.834;2023-06-22T22:34:05;14.45;;;8.70;;
29824;SDS011;16713;52.916;12.834;2023-06-22T22:36:32;9.48;;;7.80;;
29824;SDS011;16713;52.916;12.834;2023-06-22T22:38:59;12.75;;;7.30;;
29824;SDS011;16713;52.916;12.834;2023-06-22T22:41:26;13.27;;;7.68;;
29824;SDS011;16713;52.916;12.834;2023-06-22T22:43:53;9.57;;;6.82;;
29824;SDS011;16713;52.916;12.834;2023-06-22T22:46:21;8.73;;;6.90;;
29824;SDS011;16713;52.916;12.834;2023-06-22T22:48:47;7.78;;;6.70;;
29824;SDS011;16713;52.916;12.834;2023-06-22T22:51:14;10.73;;;6.80;;
29824;SDS011;16713;52.916;12.834;2023-06-22T22:53:41;9.43;;;7.00;;
29824;SDS011;16713;52.916;12.834;2023-06-22T22:56:08;9.50;;;6.38;;
29824;SDS011;16713;52.916;12.834;2023-06-22T22:58:36;10.80;;;6.97;;
29824;SDS011;16713;52.916;12.834;2023-06-22T23:01:05;8.30;;;6.10;;
29824;SDS011;16713;52.916;12.834;2023-06-22T23:03:33;8.30;;;6.32;;
29824;SDS011;16713;52.916;12.834;2023-06-22T23:05:59;12.02;;;6.55;;
29824;SDS011;16713;52.916;12.834;2023-06-22T23:08:26;13.65;;;6.13;;
29824;SDS011;16713;52.916;12.834;2023-06-22T23:10:53;7.85;;;5.97;;
29824;SDS011;16713;52.916;12.834;2023-06-22T23:13:19;9.30;;;6.25;;
29824;SDS011;16713;52.916;12.834;2023-06-22T23:15:46;9.63;;;6.05;;